Dolph, Arkansas
Current Conditions -  °F | °C
As of 7:53 AM on Wednesday 26 Nov 2014 (Local Time) from KBPK Reporting Station
Overcast Overcast  
Wind Chill: 29°   Ceiling: 9500
Heat Index: 34°   Visibility: 10mi
Dew Point: 24°   Wind: 6mph
Humidity: 67%   Direction: 150°SSE
Pressure: 29.98"   Gusts: NA
Location:  36.23°N, 92.11°W
Report Text: KBPK 261353Z AUTO 15005KT 10SM OVC095 01/M04 A2998 RMK AO2 SLP157 T00111044
Loading
Personal Weather Stations






























Interactive Weather Map New forecast layout! Learn more

10-Day Weather Forecast

Advertisements
Track Severe Weather on mobile